Time;durP1;ratioP1;P1;durP2;ratioP2;P2;SDS_P1;SDS_P2;PMS_P1;PMS_P2;Temp;Humidity;BMP_temperature;BMP_pressure;BME280_temperature;BME280_humidity;BME280_pressure;Samples;Min_cycle;Max_cycle;Signal;HPM_P1;HPM_P2
2023/07/08 00:00:40;;;;;;;1.73;1.63;;;23.40;42.10;;;;;;4994040;28;21075;-64
2023/07/08 00:03:05;;;;;;;1.90;1.80;;;23.40;42.10;;;;;;4993538;28;20459;-64
2023/07/08 00:05:32;;;;;;;1.90;1.80;;;23.40;42.10;;;;;;4988058;28;20248;-64
2023/07/08 00:07:57;;;;;;;1.80;1.70;;;23.40;42.20;;;;;;4993405;28;20341;-67
2023/07/08 00:10:27;;;;;;;2.10;2.00;;;23.40;42.20;;;;;;4995108;28;20454;-65
2023/07/08 00:12:55;;;;;;;1.90;1.80;;;23.40;42.10;;;;;;4994077;28;20310;-65
2023/07/08 00:15:24;;;;;;;1.77;1.67;;;23.40;42.20;;;;;;4998289;28;20548;-64
2023/07/08 00:17:49;;;;;;;2.00;1.90;;;23.40;42.20;;;;;;4990915;28;20465;-66
2023/07/08 00:20:21;;;;;;;8.90;2.30;;;23.40;42.20;;;;;;4993343;28;20480;-64
2023/07/08 00:22:49;;;;;;;2.10;2.00;;;23.40;42.20;;;;;;4993310;28;20219;-64
2023/07/08 00:25:15;;;;;;;1.63;1.53;;;23.40;42.20;;;;;;4993210;28;20539;-64
2023/07/08 00:27:41;;;;;;;1.90;1.80;;;23.40;42.20;;;;;;4992534;28;20494;-64
2023/07/08 00:30:23;;;;;;;1.80;1.70;;;23.40;42.20;;;;;;4994671;28;20967;-65
2023/07/08 00:32:53;;;;;;;1.93;1.83;;;23.40;42.20;;;;;;4992031;28;20717;-64
2023/07/08 00:35:45;;;;;;;1.70;1.60;;;23.40;42.20;;;;;;4993877;28;20466;-64
2023/07/08 00:38:20;;;;;;;1.70;1.60;;;23.40;42.20;;;;;;4988410;28;20470;-64
2023/07/08 00:40:58;;;;;;;2.10;1.83;;;23.40;42.20;;;;;;4993574;28;20466;-65
2023/07/08 00:43:37;;;;;;;1.60;1.50;;;23.40;42.20;;;;;;4992306;28;20471;-64
2023/07/08 00:46:17;;;;;;;1.87;1.77;;;23.40;42.20;;;;;;4996914;28;20504;-65
2023/07/08 00:48:44;;;;;;;1.77;1.67;;;23.40;42.20;;;;;;4993454;28;21058;-64
2023/07/08 00:51:12;;;;;;;1.63;1.53;;;23.40;42.20;;;;;;4984726;28;20453;-65
2023/07/08 00:53:38;;;;;;;1.80;1.70;;;23.40;42.20;;;;;;4983225;28;20437;-66
2023/07/08 00:56:23;;;;;;;2.30;2.20;;;23.40;42.20;;;;;;4986801;28;20488;-64
2023/07/08 00:58:55;;;;;;;1.80;1.70;;;23.40;42.20;;;;;;4970270;28;20988;-64
2023/07/08 01:01:21;;;;;;;2.10;2.00;;;23.40;42.20;;;;;;4984339;28;20468;-67
2023/07/08 01:03:55;;;;;;;1.87;1.70;;;23.40;42.20;;;;;;4987161;28;20540;-64
2023/07/08 01:06:23;;;;;;;2.30;2.10;;;23.40;42.20;;;;;;4987561;28;20570;-65
2023/07/08 01:08:52;;;;;;;3.93;2.10;;;23.40;42.20;;;;;;4990939;28;20454;-65
2023/07/08 01:11:21;;;;;;;1.80;1.70;;;23.40;42.20;;;;;;4992366;28;20473;-64
2023/07/08 01:13:50;;;;;;;2.90;1.87;;;23.40;42.20;;;;;;4991499;28;20460;-64
2023/07/08 01:16:16;;;;;;;1.80;1.70;;;23.40;42.20;;;;;;4994653;28;20465;-64
2023/07/08 01:18:42;;;;;;;1.90;1.80;;;23.40;42.20;;;;;;4989720;28;20481;-64
2023/07/08 01:21:36;;;;;;;1.90;1.80;;;23.40;42.20;;;;;;4989966;28;20232;-65
2023/07/08 01:24:05;;;;;;;2.10;2.00;;;23.40;42.20;;;;;;4992058;28;20226;-65
2023/07/08 01:26:33;;;;;;;1.90;1.80;;;23.40;42.20;;;;;;4987252;28;20462;-65
2023/07/08 01:28:59;;;;;;;2.40;2.30;;;23.40;42.20;;;;;;4992148;28;20552;-65
2023/07/08 01:31:25;;;;;;;1.80;1.70;;;23.40;42.20;;;;;;4992895;28;20511;-65
2023/07/08 01:33:53;;;;;;;1.90;1.80;;;23.40;42.20;;;;;;4992663;28;20446;-65
2023/07/08 01:36:18;;;;;;;2.13;2.03;;;23.40;42.20;;;;;;4992983;28;20467;-66
2023/07/08 01:38:45;;;;;;;2.30;2.20;;;23.40;42.20;;;;;;4992581;28;21002;-65
2023/07/08 01:41:12;;;;;;;1.80;1.70;;;23.40;42.20;;;;;;4994269;28;20228;-64
2023/07/08 01:43:38;;;;;;;2.00;1.90;;;23.40;42.20;;;;;;4987716;28;20532;-65
2023/07/08 01:46:11;;;;;;;2.00;1.90;;;23.40;42.20;;;;;;4992588;28;20474;-64
2023/07/08 01:48:40;;;;;;;2.03;1.93;;;23.40;42.20;;;;;;4990454;28;20311;-67
2023/07/08 01:51:07;;;;;;;2.00;1.90;;;23.40;42.20;;;;;;4985100;28;20449;-64
2023/07/08 01:53:35;;;;;;;2.30;2.20;;;23.40;42.20;;;;;;4989014;28;20465;-64
2023/07/08 01:56:02;;;;;;;2.30;2.20;;;23.40;42.20;;;;;;4994068;28;20473;-64
2023/07/08 01:58:28;;;;;;;2.03;1.93;;;23.40;42.20;;;;;;4995004;28;20475;-64
2023/07/08 02:00:54;;;;;;;2.03;1.93;;;23.40;42.20;;;;;;4993544;28;21041;-65
2023/07/08 02:03:20;;;;;;;1.60;1.50;;;23.40;42.20;;;;;;4990231;28;20224;-65
2023/07/08 02:05:46;;;;;;;1.70;1.60;;;23.40;42.20;;;;;;4990904;28;20457;-64
2023/07/08 02:08:11;;;;;;;1.80;1.70;;;23.40;42.20;;;;;;4990750;28;20468;-65
2023/07/08 02:10:38;;;;;;;2.07;1.97;;;23.40;42.60;;;;;;4992578;28;20218;-64
2023/07/08 02:13:04;;;;;;;1.97;1.87;;;23.40;42.20;;;;;;4988677;28;20216;-64
2023/07/08 02:15:30;;;;;;;1.60;1.50;;;23.40;42.20;;;;;;4982329;28;20472;-65
2023/07/08 02:17:55;;;;;;;1.57;1.47;;;23.40;42.20;;;;;;4991793;28;20236;-66
2023/07/08 02:20:22;;;;;;;1.93;1.83;;;23.40;42.20;;;;;;4989414;28;20231;-67
2023/07/08 02:22:47;;;;;;;2.13;2.03;;;23.40;42.20;;;;;;4977673;28;20320;-64
2023/07/08 02:25:13;;;;;;;1.90;1.80;;;23.40;42.20;;;;;;4989001;28;20487;-64
2023/07/08 02:27:39;;;;;;;1.90;1.80;;;23.40;42.20;;;;;;4989152;28;20286;-66
2023/07/08 02:30:06;;;;;;;1.93;1.83;;;23.40;42.20;;;;;;4995675;28;20716;-65
2023/07/08 02:32:34;;;;;;;2.00;1.90;;;23.40;42.20;;;;;;4990178;28;20834;-65
2023/07/08 02:34:59;;;;;;;2.10;2.00;;;23.30;42.10;;;;;;4989439;28;20464;-66
2023/07/08 02:37:25;;;;;;;1.80;1.70;;;23.30;42.10;;;;;;4980005;28;20471;-64
2023/07/08 02:39:51;;;;;;;2.03;1.93;;;23.30;42.10;;;;;;4997716;28;20740;-64
2023/07/08 02:42:17;;;;;;;2.23;1.47;;;23.30;42.10;;;;;;4992884;28;20334;-64
2023/07/08 02:44:42;;;;;;;1.70;1.60;;;23.40;42.20;;;;;;4996275;28;20293;-64
2023/07/08 02:47:08;;;;;;;1.97;1.87;;;23.30;42.10;;;;;;4997777;28;20216;-65
2023/07/08 02:49:33;;;;;;;1.93;1.80;;;23.40;42.20;;;;;;4993060;28;20701;-65
2023/07/08 02:51:59;;;;;;;1.77;1.67;;;23.40;42.20;;;;;;4994831;28;20219;-65
2023/07/08 02:54:24;;;;;;;2.27;1.80;;;23.30;42.10;;;;;;4995470;28;20255;-65
2023/07/08 02:56:50;;;;;;;1.80;1.70;;;23.30;42.10;;;;;;4995409;28;20263;-64
2023/07/08 02:59:15;;;;;;;1.90;1.80;;;23.30;42.10;;;;;;4995808;28;20370;-64
2023/07/08 03:01:41;;;;;;;1.70;1.60;;;23.30;42.10;;;;;;4995521;28;20227;-64
2023/07/08 03:04:13;;;;;;;1.70;1.60;;;23.30;42.10;;;;;;4992388;28;20231;-65
2023/07/08 03:06:43;;;;;;;2.00;1.90;;;23.30;42.10;;;;;;4994722;28;20231;-66
2023/07/08 03:09:11;;;;;;;1.70;1.60;;;23.30;42.10;;;;;;4994902;28;20450;-66
2023/07/08 03:11:37;;;;;;;3.33;1.53;;;23.30;42.10;;;;;;4995236;28;20461;-64
2023/07/08 03:14:03;;;;;;;2.20;2.10;;;23.30;42.10;;;;;;4994149;28;20452;-65
2023/07/08 03:16:29;;;;;;;2.10;2.00;;;23.30;42.10;;;;;;4994472;28;20479;-65
2023/07/08 03:18:54;;;;;;;2.00;1.90;;;23.30;42.10;;;;;;4989879;28;20235;-65
2023/07/08 03:21:20;;;;;;;1.60;1.50;;;23.30;42.10;;;;;;4997936;28;20845;-65
2023/07/08 03:23:47;;;;;;;1.90;1.80;;;23.30;42.10;;;;;;4990844;28;20244;-66
2023/07/08 03:26:21;;;;;;;1.90;1.70;;;23.30;42.10;;;;;;4996826;28;20243;-64
2023/07/08 03:28:47;;;;;;;1.97;1.87;;;23.30;42.10;;;;;;4989915;28;20558;-65
2023/07/08 03:31:13;;;;;;;2.20;2.10;;;23.30;42.10;;;;;;4993196;28;20508;-65
2023/07/08 03:33:38;;;;;;;1.60;1.50;;;23.30;42.10;;;;;;4995003;28;20464;-64
2023/07/08 03:36:09;;;;;;;1.87;1.77;;;23.30;42.10;;;;;;4995177;28;20242;-64
2023/07/08 03:38:36;;;;;;;1.80;1.70;;;23.30;42.10;;;;;;4994590;28;20293;-64
2023/07/08 03:41:02;;;;;;;1.80;1.70;;;23.30;42.10;;;;;;4995833;28;20551;-64
2023/07/08 03:43:27;;;;;;;1.80;1.70;;;23.30;42.10;;;;;;4992505;28;20223;-65
2023/07/08 03:45:53;;;;;;;2.07;1.97;;;23.30;42.10;;;;;;4994811;28;20413;-64
2023/07/08 03:48:18;;;;;;;1.93;1.83;;;23.30;42.20;;;;;;4991910;28;20274;-64
2023/07/08 03:50:44;;;;;;;2.07;1.70;;;23.30;42.10;;;;;;4976015;28;20223;-65
2023/07/08 03:53:10;;;;;;;2.77;2.10;;;23.30;42.10;;;;;;4992528;28;20223;-64
2023/07/08 03:55:35;;;;;;;2.40;2.20;;;23.30;42.10;;;;;;4993354;28;20761;-64
2023/07/08 03:58:01;;;;;;;1.87;1.77;;;23.30;42.20;;;;;;4993620;28;20232;-65
2023/07/08 04:00:26;;;;;;;1.77;1.67;;;23.30;42.20;;;;;;4995426;28;20231;-64
2023/07/08 04:02:52;;;;;;;1.70;1.60;;;23.30;42.20;;;;;;4990405;28;20678;-64
2023/07/08 04:05:20;;;;;;;2.00;1.90;;;23.30;42.30;;;;;;4994752;28;20227;-64
2023/07/08 04:07:46;;;;;;;1.77;1.67;;;23.30;42.30;;;;;;4995403;28;20258;-64
2023/07/08 04:10:13;;;;;;;2.10;2.00;;;23.30;42.30;;;;;;4993510;28;20465;-65
2023/07/08 04:12:39;;;;;;;1.50;1.40;;;23.30;42.40;;;;;;4992995;28;20532;-64
2023/07/08 04:15:07;;;;;;;1.70;1.60;;;23.30;42.30;;;;;;4993401;28;20461;-65
2023/07/08 04:17:33;;;;;;;1.77;1.67;;;23.30;42.30;;;;;;4991150;28;20547;-64
2023/07/08 04:20:06;;;;;;;1.60;1.50;;;23.30;42.30;;;;;;4992562;28;20481;-65
2023/07/08 04:22:31;;;;;;;1.90;1.80;;;23.30;42.40;;;;;;4996180;28;20504;-67
2023/07/08 04:24:57;;;;;;;1.90;1.80;;;23.30;42.30;;;;;;4992506;28;20603;-64
2023/07/08 04:27:22;;;;;;;1.73;1.63;;;23.30;42.30;;;;;;4990160;28;20322;-64
2023/07/08 04:29:48;;;;;;;2.00;1.90;;;23.30;42.40;;;;;;4990804;28;21233;-63
2023/07/08 04:32:13;;;;;;;1.60;1.50;;;23.30;42.40;;;;;;4993447;28;20236;-66
2023/07/08 04:34:39;;;;;;;1.70;1.60;;;23.30;42.30;;;;;;4971653;28;20235;-67
2023/07/08 04:37:05;;;;;;;1.90;1.80;;;23.30;42.40;;;;;;4993665;28;20758;-63
2023/07/08 04:39:31;;;;;;;2.10;1.90;;;23.30;42.30;;;;;;4991384;28;20239;-64
2023/07/08 04:41:56;;;;;;;2.07;1.97;;;23.30;42.40;;;;;;4990288;28;20548;-64
2023/07/08 04:44:22;;;;;;;2.00;1.90;;;23.30;42.30;;;;;;4992229;28;20274;-65
2023/07/08 04:46:56;;;;;;;1.73;1.63;;;23.30;42.30;;;;;;4988729;28;20382;-63
2023/07/08 04:49:23;;;;;;;1.60;1.50;;;23.30;42.30;;;;;;4993672;28;20227;-63
2023/07/08 04:51:48;;;;;;;2.07;1.97;;;23.40;42.30;;;;;;4992437;28;20467;-65
2023/07/08 04:54:14;;;;;;;1.97;1.87;;;23.40;42.20;;;;;;4993655;28;20460;-65
2023/07/08 04:56:43;;;;;;;2.20;1.70;;;23.40;42.20;;;;;;4993208;28;20243;-64
2023/07/08 04:59:10;;;;;;;1.70;1.60;;;23.40;42.20;;;;;;4990985;28;20258;-63
2023/07/08 05:01:36;;;;;;;1.90;1.80;;;23.40;42.20;;;;;;4990453;28;22340;-63
2023/07/08 05:04:02;;;;;;;1.80;1.70;;;23.40;42.20;;;;;;4989328;28;20576;-65
2023/07/08 05:06:28;;;;;;;1.80;1.70;;;23.40;42.20;;;;;;4986882;28;20317;-63
2023/07/08 05:08:54;;;;;;;1.50;1.40;;;23.40;42.20;;;;;;4994541;28;20453;-64
2023/07/08 05:11:19;;;;;;;1.83;1.73;;;23.40;42.20;;;;;;4986371;28;20863;-65
2023/07/08 05:13:45;;;;;;;1.60;1.50;;;23.40;42.20;;;;;;4992763;28;20238;-64
2023/07/08 05:16:10;;;;;;;1.70;1.60;;;23.40;42.20;;;;;;4994728;28;20314;-63
2023/07/08 05:18:36;;;;;;;1.77;1.67;;;23.40;42.20;;;;;;4990943;28;20223;-64
2023/07/08 05:21:02;;;;;;;2.30;2.20;;;23.40;42.20;;;;;;4992105;28;20683;-64
2023/07/08 05:23:28;;;;;;;1.70;1.60;;;23.40;42.20;;;;;;4994245;28;20310;-65
2023/07/08 05:25:54;;;;;;;1.60;1.50;;;23.40;42.20;;;;;;4988742;28;20483;-65
2023/07/08 05:28:21;;;;;;;1.90;1.80;;;23.40;42.20;;;;;;4989998;28;20219;-66
2023/07/08 05:30:46;;;;;;;2.00;1.90;;;23.40;43.00;;;;;;4990711;28;20777;-65
2023/07/08 05:33:12;;;;;;;2.23;1.90;;;23.50;42.30;;;;;;4989472;28;20454;-66
2023/07/08 05:35:37;;;;;;;1.97;1.87;;;23.40;42.20;;;;;;4990871;28;20232;-66
2023/07/08 05:38:03;;;;;;;1.97;1.87;;;23.50;42.30;;;;;;4991380;28;20231;-66
2023/07/08 05:40:29;;;;;;;1.63;1.53;;;23.50;42.30;;;;;;4994268;28;20219;-66
2023/07/08 05:42:55;;;;;;;1.67;1.57;;;23.50;42.30;;;;;;4993729;28;20259;-67
2023/07/08 05:45:21;;;;;;;1.80;1.70;;;23.50;42.30;;;;;;4994775;28;20330;-66
2023/07/08 05:47:46;;;;;;;1.70;1.60;;;23.50;42.30;;;;;;4990877;28;20975;-65
2023/07/08 05:50:12;;;;;;;1.50;1.40;;;23.50;42.30;;;;;;4991046;28;20743;-65
2023/07/08 05:52:37;;;;;;;2.00;1.90;;;23.50;42.30;;;;;;4986552;28;20228;-63
2023/07/08 05:55:03;;;;;;;1.80;1.70;;;23.50;42.30;;;;;;4988622;28;20219;-67
2023/07/08 05:57:29;;;;;;;1.67;1.57;;;23.50;42.30;;;;;;4988737;28;20239;-67
2023/07/08 05:59:55;;;;;;;1.80;1.70;;;23.50;42.30;;;;;;4996928;28;20457;-67
2023/07/08 06:02:23;;;;;;;1.87;1.77;;;23.50;42.30;;;;;;4990959;28;20286;-65
2023/07/08 06:04:48;;;;;;;1.80;1.70;;;23.50;42.30;;;;;;4990880;28;20432;-66
2023/07/08 06:07:14;;;;;;;4.57;1.90;;;23.50;42.30;;;;;;4994734;28;20465;-67
2023/07/08 06:09:40;;;;;;;1.80;1.70;;;23.50;42.30;;;;;;4989492;28;20231;-66
2023/07/08 06:12:05;;;;;;;2.33;2.23;;;23.50;42.30;;;;;;4993237;28;20267;-65
2023/07/08 06:14:31;;;;;;;1.87;1.77;;;23.50;42.30;;;;;;4997530;28;20243;-65
2023/07/08 06:16:58;;;;;;;1.50;1.40;;;23.50;42.30;;;;;;4991035;28;20227;-66
2023/07/08 06:19:24;;;;;;;1.90;1.80;;;23.50;42.30;;;;;;4988546;28;20235;-66
2023/07/08 06:21:49;;;;;;;2.07;1.97;;;23.50;42.30;;;;;;4992688;28;21801;-66
2023/07/08 06:24:15;;;;;;;1.87;1.77;;;23.50;42.30;;;;;;4989450;28;20362;-66
2023/07/08 06:26:40;;;;;;;1.77;1.67;;;23.50;42.30;;;;;;4993399;28;20227;-65
2023/07/08 06:29:06;;;;;;;1.60;1.50;;;23.50;42.30;;;;;;4996682;28;20669;-65
2023/07/08 06:31:32;;;;;;;1.70;1.60;;;23.50;42.30;;;;;;4995447;28;20227;-65
2023/07/08 06:33:58;;;;;;;2.00;1.90;;;23.50;42.30;;;;;;4994355;28;20213;-65
2023/07/08 06:36:23;;;;;;;2.00;1.90;;;23.50;42.30;;;;;;4988999;28;20239;-66
2023/07/08 06:38:49;;;;;;;1.87;1.77;;;23.50;42.30;;;;;;4992260;28;20892;-65
2023/07/08 06:41:14;;;;;;;2.87;1.93;;;23.50;42.30;;;;;;4999183;28;20234;-65
2023/07/08 06:43:40;;;;;;;2.00;1.90;;;23.50;42.30;;;;;;4994942;28;20227;-66
2023/07/08 06:46:06;;;;;;;2.40;1.50;;;23.50;42.30;;;;;;4990102;28;20242;-65
2023/07/08 06:48:32;;;;;;;1.90;1.80;;;23.50;42.30;;;;;;4994471;28;20223;-66
2023/07/08 06:50:58;;;;;;;1.93;1.83;;;23.50;42.30;;;;;;4985389;28;20484;-68
2023/07/08 06:53:23;;;;;;;2.23;2.03;;;23.50;42.30;;;;;;4992915;28;20303;-65
2023/07/08 06:55:49;;;;;;;2.80;1.97;;;23.50;42.30;;;;;;4990355;28;20461;-65
2023/07/08 06:58:15;;;;;;;1.80;1.57;;;23.50;42.30;;;;;;4989400;28;20232;-65
2023/07/08 07:00:44;;;;;;;2.23;2.00;;;23.50;42.30;;;;;;4986563;28;20239;-65
2023/07/08 07:03:10;;;;;;;1.90;1.80;;;23.60;42.40;;;;;;4983726;28;20311;-65
2023/07/08 07:05:36;;;;;;;1.93;1.67;;;23.60;42.40;;;;;;4989938;28;21436;-64
2023/07/08 07:08:04;;;;;;;2.53;1.93;;;23.60;42.40;;;;;;4987059;28;20469;-65
2023/07/08 07:10:29;;;;;;;1.80;1.70;;;23.60;42.40;;;;;;4991548;28;20223;-65
2023/07/08 07:12:55;;;;;;;2.00;1.90;;;23.60;42.40;;;;;;4987286;28;20470;-67
2023/07/08 07:15:20;;;;;;;2.07;1.97;;;23.60;42.40;;;;;;4990490;28;20231;-66
2023/07/08 07:17:46;;;;;;;2.23;2.10;;;23.60;42.40;;;;;;4986582;28;20250;-67
2023/07/08 07:20:12;;;;;;;2.13;1.73;;;23.60;42.40;;;;;;4990472;28;20321;-66
2023/07/08 07:22:37;;;;;;;1.90;1.80;;;23.60;42.40;;;;;;4991276;28;20316;-62
2023/07/08 07:25:04;;;;;;;2.00;1.90;;;23.60;42.40;;;;;;4992478;28;20473;-65
2023/07/08 07:27:29;;;;;;;2.23;1.80;;;23.60;42.40;;;;;;4991563;28;20227;-64
2023/07/08 07:29:55;;;;;;;2.13;2.03;;;23.60;42.40;;;;;;4986674;28;21278;-62
2023/07/08 07:32:24;;;;;;;2.33;2.23;;;23.60;42.40;;;;;;4988513;28;20216;-63
2023/07/08 07:34:50;;;;;;;2.07;1.97;;;23.60;42.40;;;;;;4992925;28;20265;-64
2023/07/08 07:37:18;;;;;;;2.03;1.93;;;23.60;42.40;;;;;;4980361;28;20570;-63
2023/07/08 07:39:44;;;;;;;2.83;2.20;;;23.60;42.40;;;;;;4995488;28;20556;-63
2023/07/08 07:42:11;;;;;;;2.17;2.07;;;23.60;42.40;;;;;;4992938;28;20541;-65
2023/07/08 07:44:39;;;;;;;1.90;1.77;;;23.60;42.40;;;;;;4994186;28;20584;-64
2023/07/08 07:47:05;;;;;;;1.90;1.80;;;23.60;42.40;;;;;;4993661;28;20476;-64
2023/07/08 07:49:31;;;;;;;2.10;2.00;;;23.60;42.40;;;;;;4992511;28;20491;-64
2023/07/08 07:51:57;;;;;;;1.90;1.80;;;23.60;42.40;;;;;;4991954;28;20545;-63
2023/07/08 07:54:23;;;;;;;2.30;2.20;;;23.60;42.40;;;;;;4994494;28;20224;-62
2023/07/08 07:56:48;;;;;;;2.30;2.10;;;23.60;42.40;;;;;;4992990;28;20246;-63
2023/07/08 07:59:14;;;;;;;2.70;2.20;;;23.60;42.40;;;;;;4993071;28;20227;-63
2023/07/08 08:01:40;;;;;;;2.30;2.20;;;23.60;43.10;;;;;;4993575;28;20215;-65
2023/07/08 08:04:06;;;;;;;2.10;2.00;;;23.60;42.40;;;;;;4992885;28;20323;-62
2023/07/08 08:06:31;;;;;;;2.07;1.97;;;23.60;42.40;;;;;;4995491;28;20544;-62
2023/07/08 08:08:57;;;;;;;3.10;2.20;;;23.60;42.40;;;;;;4992852;28;20214;-62
2023/07/08 08:11:25;;;;;;;2.43;2.30;;;23.60;42.40;;;;;;4994865;28;20219;-63
2023/07/08 08:13:51;;;;;;;2.10;2.00;;;23.60;42.40;;;;;;4992874;28;20231;-63
2023/07/08 08:16:16;;;;;;;2.43;2.23;;;23.60;42.40;;;;;;4992912;28;20466;-63
2023/07/08 08:18:42;;;;;;;2.43;2.33;;;23.60;42.40;;;;;;4993487;28;20250;-62
2023/07/08 08:21:07;;;;;;;2.70;2.07;;;23.60;42.40;;;;;;4992125;28;20734;-63
2023/07/08 08:23:33;;;;;;;2.30;2.20;;;23.60;42.40;;;;;;4992149;28;20235;-63
2023/07/08 08:25:58;;;;;;;2.40;2.23;;;23.60;42.40;;;;;;4990690;28;20227;-64
2023/07/08 08:28:24;;;;;;;3.50;1.93;;;23.60;42.40;;;;;;4990668;28;21121;-63
2023/07/08 08:30:50;;;;;;;2.50;2.40;;;23.60;42.40;;;;;;4995312;28;21288;-63
2023/07/08 08:33:16;;;;;;;2.30;2.20;;;23.60;42.40;;;;;;4991316;28;20312;-63
2023/07/08 08:35:42;;;;;;;2.20;2.10;;;23.60;42.40;;;;;;4994955;28;20468;-64
2023/07/08 08:38:08;;;;;;;2.00;1.90;;;23.60;42.40;;;;;;4991800;28;20224;-62
2023/07/08 08:40:33;;;;;;;2.10;2.00;;;23.60;42.40;;;;;;4992247;28;20461;-63
2023/07/08 08:43:10;;;;;;;5.13;2.70;;;23.60;42.40;;;;;;4991558;28;20589;-63
2023/07/08 08:46:01;;;;;;;2.30;2.20;;;23.60;42.40;;;;;;4992605;28;20273;-62
2023/07/08 08:48:31;;;;;;;2.27;2.17;;;23.60;42.40;;;;;;4993016;28;20467;-63
2023/07/08 08:51:03;;;;;;;2.70;2.50;;;23.60;42.40;;;;;;4994132;28;20488;-63
2023/07/08 08:53:28;;;;;;;2.47;2.27;;;23.60;42.40;;;;;;4991261;28;20465;-62
2023/07/08 08:56:05;;;;;;;2.63;2.53;;;23.60;42.40;;;;;;4993136;28;20453;-62
2023/07/08 08:58:43;;;;;;;2.43;2.13;;;23.60;42.40;;;;;;4989555;28;20588;-62
2023/07/08 09:01:13;;;;;;;3.23;2.97;;;23.60;42.40;;;;;;4992486;28;20500;-63
2023/07/08 09:03:48;;;;;;;2.60;2.50;;;23.60;42.40;;;;;;4994126;28;20445;-62
2023/07/08 09:06:19;;;;;;;2.53;2.43;;;23.60;42.40;;;;;;4992028;28;20491;-65
2023/07/08 09:08:46;;;;;;;2.70;2.50;;;23.60;42.40;;;;;;4991412;28;20487;-63
2023/07/08 09:11:30;;;;;;;2.63;2.53;;;23.60;42.40;;;;;;4993673;28;20454;-62
2023/07/08 09:13:56;;;;;;;3.07;2.87;;;23.60;42.40;;;;;;4995678;28;20434;-64
2023/07/08 09:16:43;;;;;;;2.03;1.93;;;23.60;42.40;;;;;;4962683;28;20590;-63
2023/07/08 09:19:13;;;;;;;2.20;2.10;;;23.60;42.40;;;;;;4989114;28;20246;-62
2023/07/08 09:22:02;;;;;;;2.70;2.50;;;23.60;42.40;;;;;;4992774;28;20468;-64
2023/07/08 09:24:56;;;;;;;2.50;2.40;;;23.60;42.40;;;;;;4988715;28;20507;-62
2023/07/08 09:27:22;;;;;;;2.90;2.70;;;23.60;42.40;;;;;;4990540;28;20457;-63
2023/07/08 09:29:48;;;;;;;2.70;2.50;;;23.70;42.50;;;;;;4988523;28;20472;-63
2023/07/08 09:32:25;;;;;;;2.20;2.10;;;23.60;42.40;;;;;;4991081;28;20223;-63
2023/07/08 09:34:53;;;;;;;2.40;2.30;;;23.60;42.40;;;;;;4991934;28;20224;-64
2023/07/08 09:37:26;;;;;;;2.67;2.57;;;23.60;42.40;;;;;;4989155;28;20477;-63
2023/07/08 09:39:53;;;;;;;2.27;2.17;;;23.70;42.50;;;;;;4990431;28;20989;-64
2023/07/08 09:42:21;;;;;;;3.00;2.80;;;23.60;42.40;;;;;;4990120;28;20503;-63
2023/07/08 09:44:47;;;;;;;2.90;2.70;;;23.70;42.50;;;;;;4993246;28;20472;-63
2023/07/08 09:47:30;;;;;;;2.67;2.57;;;23.70;42.50;;;;;;4977311;28;20466;-62
2023/07/08 09:49:57;;;;;;;2.50;2.40;;;23.70;42.50;;;;;;4994520;28;20684;-63
2023/07/08 09:52:23;;;;;;;2.93;2.80;;;23.70;42.50;;;;;;4991208;28;20484;-63
2023/07/08 09:54:49;;;;;;;2.53;2.43;;;23.70;42.50;;;;;;4991445;28;20457;-64
2023/07/08 09:57:25;;;;;;;2.80;2.60;;;23.70;42.50;;;;;;4991302;28;20484;-62
2023/07/08 10:00:11;;;;;;;2.30;2.20;;;23.70;42.50;;;;;;4992866;28;21042;-62
2023/07/08 10:02:52;;;;;;;2.50;2.40;;;23.70;42.50;;;;;;4991431;28;20453;-62
2023/07/08 10:05:25;;;;;;;2.33;2.23;;;23.70;42.50;;;;;;4990522;28;20472;-63
2023/07/08 10:07:54;;;;;;;2.43;2.33;;;23.70;42.50;;;;;;4989974;28;20465;-62
2023/07/08 10:10:31;;;;;;;3.07;2.87;;;23.70;42.50;;;;;;4990117;28;21289;-64
2023/07/08 10:13:01;;;;;;;2.43;2.30;;;23.70;42.50;;;;;;4990679;28;21299;-62
2023/07/08 10:15:41;;;;;;;2.57;2.37;;;23.70;42.50;;;;;;4990557;28;20449;-63
2023/07/08 10:18:15;;;;;;;2.30;2.20;;;23.70;42.50;;;;;;4987668;28;20457;-62
2023/07/08 10:21:02;;;;;;;2.57;2.37;;;23.70;42.50;;;;;;4991314;28;20474;-62
2023/07/08 10:23:55;;;;;;;2.40;2.30;;;23.70;42.50;;;;;;4989115;28;20453;-63
2023/07/08 10:26:30;;;;;;;2.67;2.50;;;23.70;42.50;;;;;;4991570;28;20505;-62
2023/07/08 10:29:34;;;;;;;2.50;2.40;;;23.70;42.50;;;;;;4990884;28;20483;-62
2023/07/08 10:32:33;;;;;;;2.40;2.30;;;23.70;42.50;;;;;;4960023;28;21296;-63
2023/07/08 10:35:08;;;;;;;2.90;2.70;;;23.70;42.50;;;;;;4991365;28;20878;-63
2023/07/08 10:37:45;;;;;;;2.90;2.70;;;23.70;42.50;;;;;;4993725;28;20460;-62
2023/07/08 10:40:39;;;;;;;2.63;2.53;;;23.70;42.50;;;;;;4992843;28;20468;-64
2023/07/08 10:43:45;;;;;;;3.10;2.90;;;23.70;42.50;;;;;;4989852;28;20459;-63
2023/07/08 10:46:25;;;;;;;2.30;2.20;;;23.70;42.50;;;;;;4989393;28;20468;-62
2023/07/08 10:49:03;;;;;;;2.87;2.67;;;23.70;42.50;;;;;;4992591;28;20980;-62
2023/07/08 10:51:50;;;;;;;2.83;2.63;;;23.70;42.50;;;;;;4994675;28;20460;-62
2023/07/08 10:54:56;;;;;;;2.90;2.70;;;23.70;42.50;;;;;;4992371;28;22830;-63
2023/07/08 10:58:05;;;;;;;2.80;2.70;;;23.70;42.50;;;;;;4961230;28;21031;-63
2023/07/08 11:01:06;;;;;;;2.57;2.37;;;23.70;42.50;;;;;;4953599;28;20452;-62
2023/07/08 11:03:47;;;;;;;2.73;2.53;;;23.70;42.50;;;;;;4991536;28;20457;-62
2023/07/08 11:06:21;;;;;;;2.60;2.40;;;23.70;42.50;;;;;;4994743;28;20839;-63
2023/07/08 11:09:03;;;;;;;2.83;2.70;;;23.70;42.50;;;;;;4992983;28;21120;-63
2023/07/08 11:11:42;;;;;;;2.60;2.40;;;23.70;42.50;;;;;;4993019;28;20866;-62
2023/07/08 11:14:23;;;;;;;2.30;2.20;;;23.70;42.50;;;;;;4994369;28;20493;-63
2023/07/08 11:17:05;;;;;;;2.50;2.30;;;23.70;42.50;;;;;;4993268;28;20834;-62
2023/07/08 11:19:40;;;;;;;2.50;2.40;;;23.70;42.50;;;;;;4984257;28;20840;-63
2023/07/08 11:22:11;;;;;;;2.70;2.60;;;23.70;42.50;;;;;;4990897;28;20947;-63
2023/07/08 11:24:46;;;;;;;2.70;2.50;;;23.70;42.50;;;;;;4993983;28;20460;-65
2023/07/08 11:27:14;;;;;;;2.50;2.40;;;23.80;42.60;;;;;;4993039;28;21008;-62
2023/07/08 11:29:41;;;;;;;2.30;2.10;;;23.70;42.50;;;;;;4992001;28;20983;-64
2023/07/08 11:32:13;;;;;;;2.80;2.60;;;23.70;42.50;;;;;;4992824;28;20450;-64
2023/07/08 11:34:40;;;;;;;2.43;2.33;;;23.80;42.60;;;;;;4993856;28;20523;-63
2023/07/08 11:37:08;;;;;;;2.70;2.60;;;23.80;42.60;;;;;;4992872;28;20478;-62
2023/07/08 11:39:44;;;;;;;2.90;2.70;;;23.80;42.60;;;;;;4992030;28;20822;-62
2023/07/08 11:42:15;;;;;;;2.53;2.43;;;23.80;42.60;;;;;;4993508;28;20739;-63
2023/07/08 11:44:56;;;;;;;2.53;2.43;;;23.80;42.60;;;;;;4991678;28;20503;-64
2023/07/08 11:47:32;;;;;;;2.67;2.47;;;23.80;42.60;;;;;;4993013;28;20868;-65
2023/07/08 11:49:58;;;;;;;2.50;2.30;;;23.80;42.60;;;;;;4993925;28;20467;-62
2023/07/08 11:52:24;;;;;;;2.33;2.23;;;23.80;42.60;;;;;;4991682;28;20491;-64
2023/07/08 11:54:58;;;;;;;2.50;2.33;;;23.80;42.60;;;;;;4994447;28;20890;-62
2023/07/08 11:57:41;;;;;;;2.60;2.50;;;23.80;42.60;;;;;;4989818;28;20580;-62
2023/07/08 12:00:14;;;;;;;3.03;2.83;;;23.80;42.60;;;;;;4994788;28;20471;-62
2023/07/08 12:02:56;;;;;;;2.83;2.63;;;23.80;42.60;;;;;;4992839;28;20973;-64
2023/07/08 12:05:38;;;;;;;2.60;2.50;;;23.80;42.50;;;;;;4993503;28;20476;-62
2023/07/08 12:08:13;;;;;;;2.63;2.50;;;23.80;42.60;;;;;;4993570;28;20855;-64
2023/07/08 12:10:48;;;;;;;2.33;2.23;;;23.80;42.60;;;;;;4994362;28;20463;-65
2023/07/08 12:13:17;;;;;;;3.13;2.93;;;23.80;42.50;;;;;;4993757;28;20457;-62
2023/07/08 12:15:43;;;;;;;2.90;2.70;;;23.80;42.60;;;;;;4991855;28;20464;-63
2023/07/08 12:18:08;;;;;;;2.40;2.30;;;23.80;42.80;;;;;;4989495;28;20472;-62
2023/07/08 12:20:37;;;;;;;2.43;2.30;;;23.80;42.60;;;;;;4995588;28;20244;-64
2023/07/08 12:23:08;;;;;;;2.67;2.47;;;23.80;42.50;;;;;;4992950;28;20990;-64
2023/07/08 12:25:35;;;;;;;2.50;2.40;;;23.80;42.50;;;;;;4996367;28;20449;-63
2023/07/08 12:28:01;;;;;;;2.90;2.70;;;23.80;42.50;;;;;;4993733;28;20961;-63
2023/07/08 12:30:29;;;;;;;2.87;2.67;;;23.80;42.50;;;;;;4995219;28;20454;-63
2023/07/08 12:32:56;;;;;;;2.60;2.40;;;23.80;42.50;;;;;;4993245;28;20454;-64
2023/07/08 12:35:26;;;;;;;2.83;2.70;;;23.80;42.50;;;;;;4992470;28;20498;-64
2023/07/08 12:37:56;;;;;;;2.73;2.60;;;23.80;42.60;;;;;;4992816;28;20478;-62
2023/07/08 12:40:22;;;;;;;4.17;2.83;;;23.90;42.60;;;;;;4990844;28;20563;-62
2023/07/08 12:42:48;;;;;;;2.40;2.30;;;23.80;42.50;;;;;;4992227;28;20465;-62
2023/07/08 12:45:22;;;;;;;2.90;2.70;;;23.80;42.50;;;;;;4992930;28;20465;-62
2023/07/08 12:47:48;;;;;;;3.13;2.93;;;23.80;42.50;;;;;;4990607;28;20258;-62
2023/07/08 12:50:14;;;;;;;2.23;2.13;;;23.80;42.50;;;;;;4993219;28;20492;-62
2023/07/08 12:52:40;;;;;;;2.43;2.33;;;23.90;42.60;;;;;;4992692;28;20222;-65
2023/07/08 12:55:09;;;;;;;2.53;2.33;;;23.80;42.50;;;;;;4992724;28;20472;-64
2023/07/08 12:57:34;;;;;;;2.40;2.20;;;23.80;42.40;;;;;;4991330;28;20243;-63
2023/07/08 13:00:01;;;;;;;2.97;2.77;;;23.80;42.50;;;;;;4993295;28;20457;-63